sensor_id;sensor_type;location;lat;lon;timestamp;temperature;humidity
1377;DHT22;682;52.502;13.488;2023-04-01T00:01:46;10.50;1.00
1377;DHT22;682;52.502;13.488;2023-04-01T00:04:13;10.60;1.00
1377;DHT22;682;52.502;13.488;2023-04-01T00:06:41;10.60;1.00
1377;DHT22;682;52.502;13.488;2023-04-01T00:09:10;10.60;1.00
1377;DHT22;682;52.502;13.488;2023-04-01T00:11:37;10.60;1.00
1377;DHT22;682;52.502;13.488;2023-04-01T00:14:04;10.60;1.00
1377;DHT22;682;52.502;13.488;2023-04-01T00:16:31;10.60;1.00
1377;DHT22;682;52.502;13.488;2023-04-01T00:18:59;10.60;1.00
1377;DHT22;682;52.502;13.488;2023-04-01T00:21:26;10.50;1.00
1377;DHT22;682;52.502;13.488;2023-04-01T00:23:53;10.50;1.00
1377;DHT22;682;52.502;13.488;2023-04-01T00:26:21;10.60;1.00
1377;DHT22;682;52.502;13.488;2023-04-01T00:28:48;10.60;1.00
1377;DHT22;682;52.502;13.488;2023-04-01T00:31:15;10.60;1.00
1377;DHT22;682;52.502;13.488;2023-04-01T00:33:42;10.60;1.00
1377;DHT22;682;52.502;13.488;2023-04-01T00:36:12;10.60;1.00
1377;DHT22;682;52.502;13.488;2023-04-01T00:38:40;10.60;1.00
1377;DHT22;682;52.502;13.488;2023-04-01T00:41:09;10.70;1.00
1377;DHT22;682;52.502;13.488;2023-04-01T00:43:40;10.70;1.00
1377;DHT22;682;52.502;13.488;2023-04-01T00:46:07;10.70;1.00
1377;DHT22;682;52.502;13.488;2023-04-01T00:48:36;10.70;1.00
1377;DHT22;682;52.502;13.488;2023-04-01T00:51:07;10.70;1.00
1377;DHT22;682;52.502;13.488;2023-04-01T00:53:41;10.70;1.00
1377;DHT22;682;52.502;13.488;2023-04-01T00:56:12;10.70;1.00
1377;DHT22;682;52.502;13.488;2023-04-01T00:58:46;10.70;1.00
1377;DHT22;682;52.502;13.488;2023-04-01T01:01:13;10.70;1.00
1377;DHT22;682;52.502;13.488;2023-04-01T01:03:41;10.70;1.00
1377;DHT22;682;52.502;13.488;2023-04-01T01:06:11;10.80;1.00
1377;DHT22;682;52.502;13.488;2023-04-01T01:08:58;10.80;1.00
1377;DHT22;682;52.502;13.488;2023-04-01T01:11:37;10.80;1.00
1377;DHT22;682;52.502;13.488;2023-04-01T01:14:12;10.80;1.00
1377;DHT22;682;52.502;13.488;2023-04-01T01:16:45;10.80;1.00
1377;DHT22;682;52.502;13.488;2023-04-01T01:19:43;10.80;1.00
1377;DHT22;682;52.502;13.488;2023-04-01T01:25:24;10.80;1.00
1377;DHT22;682;52.502;13.488;2023-04-01T01:28:01;10.80;1.00
1377;DHT22;682;52.502;13.488;2023-04-01T01:30:44;10.70;1.00
1377;DHT22;682;52.502;13.488;2023-04-01T01:33:33;10.70;1.00
1377;DHT22;682;52.502;13.488;2023-04-01T01:36:04;10.80;1.00
1377;DHT22;682;52.502;13.488;2023-04-01T01:38:34;10.80;1.00
1377;DHT22;682;52.502;13.488;2023-04-01T01:41:04;10.80;1.00
1377;DHT22;682;52.502;13.488;2023-04-01T01:43:35;10.80;1.00
1377;DHT22;682;52.502;13.488;2023-04-01T01:46:06;10.80;1.00
1377;DHT22;682;52.502;13.488;2023-04-01T01:48:37;10.90;1.00
1377;DHT22;682;52.502;13.488;2023-04-01T01:51:07;10.80;1.00
1377;DHT22;682;52.502;13.488;2023-04-01T01:53:35;10.90;1.00
1377;DHT22;682;52.502;13.488;2023-04-01T01:56:02;10.90;1.00
1377;DHT22;682;52.502;13.488;2023-04-01T01:58:35;10.90;1.00
1377;DHT22;682;52.502;13.488;2023-04-01T02:01:07;10.90;1.00
1377;DHT22;682;52.502;13.488;2023-04-01T02:03:39;10.90;1.00
1377;DHT22;682;52.502;13.488;2023-04-01T02:06:12;10.80;1.00
1377;DHT22;682;52.502;13.488;2023-04-01T02:08:43;10.80;1.00
1377;DHT22;682;52.502;13.488;2023-04-01T02:11:13;10.80;1.00
1377;DHT22;682;52.502;13.488;2023-04-01T02:13:48;10.80;1.00
1377;DHT22;682;52.502;13.488;2023-04-01T02:16:20;10.80;1.00
1377;DHT22;682;52.502;13.488;2023-04-01T02:18:52;10.80;1.00
1377;DHT22;682;52.502;13.488;2023-04-01T02:21:27;10.90;1.00
1377;DHT22;682;52.502;13.488;2023-04-01T02:23:57;10.80;1.00
1377;DHT22;682;52.502;13.488;2023-04-01T02:26:25;10.90;1.00
1377;DHT22;682;52.502;13.488;2023-04-01T02:28:53;10.80;1.00
1377;DHT22;682;52.502;13.488;2023-04-01T02:31:22;10.80;1.00
1377;DHT22;682;52.502;13.488;2023-04-01T02:33:50;10.70;1.00
1377;DHT22;682;52.502;13.488;2023-04-01T02:36:17;10.70;1.00
1377;DHT22;682;52.502;13.488;2023-04-01T02:38:46;10.70;1.00
1377;DHT22;682;52.502;13.488;2023-04-01T02:41:14;10.70;1.00
1377;DHT22;682;52.502;13.488;2023-04-01T02:43:42;10.80;1.00
1377;DHT22;682;52.502;13.488;2023-04-01T02:46:09;10.70;1.00
1377;DHT22;682;52.502;13.488;2023-04-01T02:48:36;10.80;1.00
1377;DHT22;682;52.502;13.488;2023-04-01T02:51:04;10.80;1.00
1377;DHT22;682;52.502;13.488;2023-04-01T02:53:33;10.80;1.00
1377;DHT22;682;52.502;13.488;2023-04-01T02:56:02;10.70;1.00
1377;DHT22;682;52.502;13.488;2023-04-01T02:58:29;10.80;1.00
1377;DHT22;682;52.502;13.488;2023-04-01T03:00:56;10.80;1.00
1377;DHT22;682;52.502;13.488;2023-04-01T03:03:24;10.80;1.00
1377;DHT22;682;52.502;13.488;2023-04-01T03:05:51;10.80;1.00
1377;DHT22;682;52.502;13.488;2023-04-01T03:08:21;10.80;1.00
1377;DHT22;682;52.502;13.488;2023-04-01T03:10:48;10.70;1.00
1377;DHT22;682;52.502;13.488;2023-04-01T03:13:16;10.70;1.00
1377;DHT22;682;52.502;13.488;2023-04-01T03:15:43;10.80;1.00
1377;DHT22;682;52.502;13.488;2023-04-01T03:18:11;10.80;1.00
1377;DHT22;682;52.502;13.488;2023-04-01T03:20:39;10.80;1.00
1377;DHT22;682;52.502;13.488;2023-04-01T03:23:08;10.80;1.00
1377;DHT22;682;52.502;13.488;2023-04-01T03:25:36;10.80;1.00
1377;DHT22;682;52.502;13.488;2023-04-01T03:28:03;10.80;1.00
1377;DHT22;682;52.502;13.488;2023-04-01T03:30:32;10.70;1.00
1377;DHT22;682;52.502;13.488;2023-04-01T03:33:00;10.70;1.00
1377;DHT22;682;52.502;13.488;2023-04-01T03:35:27;10.60;1.00
1377;DHT22;682;52.502;13.488;2023-04-01T03:37:54;10.60;1.00
1377;DHT22;682;52.502;13.488;2023-04-01T03:40:21;10.70;1.00
1377;DHT22;682;52.502;13.488;2023-04-01T03:42:49;10.70;1.00
1377;DHT22;682;52.502;13.488;2023-04-01T03:45:17;10.80;1.00
1377;DHT22;682;52.502;13.488;2023-04-01T03:47:45;10.80;1.00
1377;DHT22;682;52.502;13.488;2023-04-01T03:50:12;10.70;1.00
1377;DHT22;682;52.502;13.488;2023-04-01T03:52:40;10.70;1.00
1377;DHT22;682;52.502;13.488;2023-04-01T03:55:08;10.70;1.00
1377;DHT22;682;52.502;13.488;2023-04-01T03:57:35;10.70;1.00
1377;DHT22;682;52.502;13.488;2023-04-01T04:00:04;10.70;1.00
1377;DHT22;682;52.502;13.488;2023-04-01T04:02:32;10.80;1.00
1377;DHT22;682;52.502;13.488;2023-04-01T04:05:01;10.80;1.00
1377;DHT22;682;52.502;13.488;2023-04-01T04:07:28;10.90;1.00
1377;DHT22;682;52.502;13.488;2023-04-01T04:09:55;10.90;1.00
1377;DHT22;682;52.502;13.488;2023-04-01T04:12:21;10.90;1.00
1377;DHT22;682;52.502;13.488;2023-04-01T04:14:48;10.90;1.00
1377;DHT22;682;52.502;13.488;2023-04-01T04:17:15;10.90;1.00
1377;DHT22;682;52.502;13.488;2023-04-01T04:19:43;10.80;1.00
1377;DHT22;682;52.502;13.488;2023-04-01T04:22:11;10.80;1.00
1377;DHT22;682;52.502;13.488;2023-04-01T04:24:38;10.80;1.00
1377;DHT22;682;52.502;13.488;2023-04-01T04:27:05;10.80;1.00
1377;DHT22;682;52.502;13.488;2023-04-01T04:29:32;10.90;1.00
1377;DHT22;682;52.502;13.488;2023-04-01T04:31:59;10.90;1.00
1377;DHT22;682;52.502;13.488;2023-04-01T04:34:26;10.90;1.00
1377;DHT22;682;52.502;13.488;2023-04-01T04:36:53;10.90;1.00
1377;DHT22;682;52.502;13.488;2023-04-01T04:39:22;10.90;1.00
1377;DHT22;682;52.502;13.488;2023-04-01T04:41:49;10.90;1.00
1377;DHT22;682;52.502;13.488;2023-04-01T04:44:16;10.90;1.00
1377;DHT22;682;52.502;13.488;2023-04-01T04:46:45;10.90;1.00
1377;DHT22;682;52.502;13.488;2023-04-01T04:49:13;10.90;1.00
1377;DHT22;682;52.502;13.488;2023-04-01T04:51:40;10.90;1.00
1377;DHT22;682;52.502;13.488;2023-04-01T04:54:07;10.90;1.00
1377;DHT22;682;52.502;13.488;2023-04-01T04:56:36;10.90;1.00
1377;DHT22;682;52.502;13.488;2023-04-01T04:59:03;10.90;1.00
1377;DHT22;682;52.502;13.488;2023-04-01T05:01:30;10.90;1.00
1377;DHT22;682;52.502;13.488;2023-04-01T05:03:57;10.90;1.00
1377;DHT22;682;52.502;13.488;2023-04-01T05:06:24;10.90;1.00
1377;DHT22;682;52.502;13.488;2023-04-01T05:08:56;10.90;1.00
1377;DHT22;682;52.502;13.488;2023-04-01T05:11:23;10.90;1.00
1377;DHT22;682;52.502;13.488;2023-04-01T05:13:54;11.00;1.00
1377;DHT22;682;52.502;13.488;2023-04-01T05:16:21;11.00;1.00
1377;DHT22;682;52.502;13.488;2023-04-01T05:18:48;11.00;1.00
1377;DHT22;682;52.502;13.488;2023-04-01T05:21:15;11.00;1.00
1377;DHT22;682;52.502;13.488;2023-04-01T05:23:43;11.10;1.00
1377;DHT22;682;52.502;13.488;2023-04-01T05:26:13;11.10;1.00
1377;DHT22;682;52.502;13.488;2023-04-01T05:28:40;11.10;1.00
1377;DHT22;682;52.502;13.488;2023-04-01T05:31:09;11.10;1.00
1377;DHT22;682;52.502;13.488;2023-04-01T05:33:36;11.00;1.00
1377;DHT22;682;52.502;13.488;2023-04-01T05:36:09;11.00;1.00
1377;DHT22;682;52.502;13.488;2023-04-01T05:38:36;11.00;1.00
1377;DHT22;682;52.502;13.488;2023-04-01T05:41:03;11.00;1.00
1377;DHT22;682;52.502;13.488;2023-04-01T05:43:30;11.00;1.00
1377;DHT22;682;52.502;13.488;2023-04-01T05:45:57;11.10;1.00
1377;DHT22;682;52.502;13.488;2023-04-01T05:48:26;11.10;1.00
1377;DHT22;682;52.502;13.488;2023-04-01T05:50:53;11.10;1.00
1377;DHT22;682;52.502;13.488;2023-04-01T05:53:20;11.10;1.00
1377;DHT22;682;52.502;13.488;2023-04-01T05:55:47;11.10;1.00
1377;DHT22;682;52.502;13.488;2023-04-01T05:58:15;11.10;1.00
1377;DHT22;682;52.502;13.488;2023-04-01T06:00:42;11.10;1.00
1377;DHT22;682;52.502;13.488;2023-04-01T06:03:09;11.00;1.00
1377;DHT22;682;52.502;13.488;2023-04-01T06:05:40;11.00;1.00
1377;DHT22;682;52.502;13.488;2023-04-01T06:08:11;11.10;1.00
1377;DHT22;682;52.502;13.488;2023-04-01T06:10:59;11.10;1.00
1377;DHT22;682;52.502;13.488;2023-04-01T06:13:48;11.10;1.00
1377;DHT22;682;52.502;13.488;2023-04-01T06:16:27;11.10;1.00
1377;DHT22;682;52.502;13.488;2023-04-01T06:19:07;11.10;1.00
1377;DHT22;682;52.502;13.488;2023-04-01T06:22:05;11.10;1.00
1377;DHT22;682;52.502;13.488;2023-04-01T06:24:46;11.20;1.00
1377;DHT22;682;52.502;13.488;2023-04-01T06:27:23;11.20;1.00
1377;DHT22;682;52.502;13.488;2023-04-01T06:30:02;11.30;1.00
1377;DHT22;682;52.502;13.488;2023-04-01T06:32:50;11.40;1.00
1377;DHT22;682;52.502;13.488;2023-04-01T06:35:35;11.40;1.00
1377;DHT22;682;52.502;13.488;2023-04-01T06:38:41;11.40;1.00
1377;DHT22;682;52.502;13.488;2023-04-01T06:41:37;11.40;1.00
1377;DHT22;682;52.502;13.488;2023-04-01T06:44:16;11.40;1.00
1377;DHT22;682;52.502;13.488;2023-04-01T06:46:47;11.50;1.00
1377;DHT22;682;52.502;13.488;2023-04-01T06:49:39;11.50;1.00
1377;DHT22;682;52.502;13.488;2023-04-01T06:52:15;11.50;1.00
1377;DHT22;682;52.502;13.488;2023-04-01T06:54:57;11.60;1.00
1377;DHT22;682;52.502;13.488;2023-04-01T06:57:31;11.70;1.00
1377;DHT22;682;52.502;13.488;2023-04-01T07:00:02;11.70;1.00
1377;DHT22;682;52.502;13.488;2023-04-01T07:02:47;11.80;1.00
1377;DHT22;682;52.502;13.488;2023-04-01T07:05:19;11.80;1.00
1377;DHT22;682;52.502;13.488;2023-04-01T07:07:48;11.60;1.00
1377;DHT22;682;52.502;13.488;2023-04-01T07:10:25;11.50;1.00
1377;DHT22;682;52.502;13.488;2023-04-01T07:12:58;11.60;1.00
1377;DHT22;682;52.502;13.488;2023-04-01T07:15:32;11.50;1.00
1377;DHT22;682;52.502;13.488;2023-04-01T07:18:05;11.50;1.00
1377;DHT22;682;52.502;13.488;2023-04-01T07:20:35;11.50;1.00
1377;DHT22;682;52.502;13.488;2023-04-01T07:23:06;11.70;1.00
1377;DHT22;682;52.502;13.488;2023-04-01T07:25:42;11.80;1.00
1377;DHT22;682;52.502;13.488;2023-04-01T07:28:13;11.80;1.00
1377;DHT22;682;52.502;13.488;2023-04-01T07:30:48;11.80;1.00
1377;DHT22;682;52.502;13.488;2023-04-01T07:33:24;11.90;1.00
1377;DHT22;682;52.502;13.488;2023-04-01T07:36:00;11.80;1.00
1377;DHT22;682;52.502;13.488;2023-04-01T07:38:41;11.80;1.00
1377;DHT22;682;52.502;13.488;2023-04-01T07:41:35;11.80;1.00
1377;DHT22;682;52.502;13.488;2023-04-01T07:44:10;11.90;1.00
1377;DHT22;682;52.502;13.488;2023-04-01T07:46:50;11.90;1.00
1377;DHT22;682;52.502;13.488;2023-04-01T07:49:27;12.00;1.00
1377;DHT22;682;52.502;13.488;2023-04-01T07:52:00;12.00;1.00
1377;DHT22;682;52.502;13.488;2023-04-01T07:54:35;12.00;1.00
1377;DHT22;682;52.502;13.488;2023-04-01T07:57:12;12.10;1.00
1377;DHT22;682;52.502;13.488;2023-04-01T07:59:56;12.00;1.00
1377;DHT22;682;52.502;13.488;2023-04-01T08:02:38;12.10;1.00
1377;DHT22;682;52.502;13.488;2023-04-01T08:05:18;12.20;1.00
1377;DHT22;682;52.502;13.488;2023-04-01T08:07:52;12.20;1.00
1377;DHT22;682;52.502;13.488;2023-04-01T08:10:30;12.20;1.00
1377;DHT22;682;52.502;13.488;2023-04-01T08:13:08;12.10;1.00
1377;DHT22;682;52.502;13.488;2023-04-01T08:15:42;12.00;1.00
1377;DHT22;682;52.502;13.488;2023-04-01T08:18:21;12.00;1.00
1377;DHT22;682;52.502;13.488;2023-04-01T08:20:53;12.00;1.00
1377;DHT22;682;52.502;13.488;2023-04-01T08:23:24;11.90;1.00
1377;DHT22;682;52.502;13.488;2023-04-01T08:25:58;11.80;1.00
1377;DHT22;682;52.502;13.488;2023-04-01T08:28:36;11.80;1.00
1377;DHT22;682;52.502;13.488;2023-04-01T08:31:10;11.80;1.00
1377;DHT22;682;52.502;13.488;2023-04-01T08:33:41;11.70;1.00
1377;DHT22;682;52.502;13.488;2023-04-01T08:36:13;11.70;1.00
1377;DHT22;682;52.502;13.488;2023-04-01T08:38:43;11.70;1.00
1377;DHT22;682;52.502;13.488;2023-04-01T08:41:36;11.60;1.00
1377;DHT22;682;52.502;13.488;2023-04-01T08:47:54;11.50;1.00
1377;DHT22;682;52.502;13.488;2023-04-01T08:53:36;11.30;1.00
1377;DHT22;682;52.502;13.488;2023-04-01T08:56:17;11.30;1.00
1377;DHT22;682;52.502;13.488;2023-04-01T08:59:13;11.30;1.00
1377;DHT22;682;52.502;13.488;2023-04-01T09:02:05;11.30;1.00
1377;DHT22;682;52.502;13.488;2023-04-01T09:05:44;11.40;1.00
1377;DHT22;682;52.502;13.488;2023-04-01T09:08:48;11.60;1.00
1377;DHT22;682;52.502;13.488;2023-04-01T09:11:50;11.80;1.00
1377;DHT22;682;52.502;13.488;2023-04-01T09:14:41;11.90;1.00
1377;DHT22;682;52.502;13.488;2023-04-01T09:17:41;11.90;1.00
1377;DHT22;682;52.502;13.488;2023-04-01T09:20:45;11.90;1.00
1377;DHT22;682;52.502;13.488;2023-04-01T09:23:53;11.90;1.00
1377;DHT22;682;52.502;13.488;2023-04-01T09:26:37;11.90;1.00
1377;DHT22;682;52.502;13.488;2023-04-01T09:29:20;12.00;1.00
1377;DHT22;682;52.502;13.488;2023-04-01T09:32:26;12.00;1.00
1377;DHT22;682;52.502;13.488;2023-04-01T09:35:06;11.90;1.00
1377;DHT22;682;52.502;13.488;2023-04-01T09:37:54;11.90;1.00
1377;DHT22;682;52.502;13.488;2023-04-01T09:40:34;11.90;1.00
1377;DHT22;682;52.502;13.488;2023-04-01T09:43:21;11.90;1.00
1377;DHT22;682;52.502;13.488;2023-04-01T09:46:08;11.90;1.00
1377;DHT22;682;52.502;13.488;2023-04-01T09:51:44;11.80;1.00
1377;DHT22;682;52.502;13.488;2023-04-01T09:54:40;11.80;1.00
1377;DHT22;682;52.502;13.488;2023-04-01T09:57:44;11.80;1.00
1377;DHT22;682;52.502;13.488;2023-04-01T10:07:18;11.90;1.00
1377;DHT22;682;52.502;13.488;2023-04-01T10:37:48;11.60;1.00
1377;DHT22;682;52.502;13.488;2023-04-01T10:40:36;11.60;1.00
1377;DHT22;682;52.502;13.488;2023-04-01T10:46:46;11.60;1.00
1377;DHT22;682;52.502;13.488;2023-04-01T10:53:11;11.50;1.00
1377;DHT22;682;52.502;13.488;2023-04-01T11:15:25;11.50;1.00
1377;DHT22;682;52.502;13.488;2023-04-01T11:18:47;11.40;1.00
1377;DHT22;682;52.502;13.488;2023-04-01T11:27:58;11.20;1.00
1377;DHT22;682;52.502;13.488;2023-04-01T11:30:40;11.30;1.00
1377;DHT22;682;52.502;13.488;2023-04-01T11:33:16;11.30;1.00
1377;DHT22;682;52.502;13.488;2023-04-01T11:36:08;11.10;1.00
1377;DHT22;682;52.502;13.488;2023-04-01T11:39:00;11.00;1.00
1377;DHT22;682;52.502;13.488;2023-04-01T11:41:35;11.00;1.00
1377;DHT22;682;52.502;13.488;2023-04-01T11:44:16;11.00;1.00
1377;DHT22;682;52.502;13.488;2023-04-01T11:46:59;10.90;1.00
1377;DHT22;682;52.502;13.488;2023-04-01T11:49:48;11.00;1.00
1377;DHT22;682;52.502;13.488;2023-04-01T11:55:28;11.20;1.00
1377;DHT22;682;52.502;13.488;2023-04-01T12:01:25;11.10;1.00
1377;DHT22;682;52.502;13.488;2023-04-01T12:04:29;11.00;1.00
1377;DHT22;682;52.502;13.488;2023-04-01T12:07:14;10.80;1.00
1377;DHT22;682;52.502;13.488;2023-04-01T12:09:49;10.80;1.00
1377;DHT22;682;52.502;13.488;2023-04-01T12:12:38;10.70;1.00
1377;DHT22;682;52.502;13.488;2023-04-01T12:15:19;10.60;1.00
1377;DHT22;682;52.502;13.488;2023-04-01T12:18:20;10.60;1.00
1377;DHT22;682;52.502;13.488;2023-04-01T12:21:23;10.60;1.00
1377;DHT22;682;52.502;13.488;2023-04-01T12:24:22;10.60;1.00
1377;DHT22;682;52.502;13.488;2023-04-01T12:33:20;10.50;1.00
1377;DHT22;682;52.502;13.488;2023-04-01T12:36:01;10.60;1.00
1377;DHT22;682;52.502;13.488;2023-04-01T12:38:45;10.60;1.00
1377;DHT22;682;52.502;13.488;2023-04-01T12:41:24;10.60;1.00
1377;DHT22;682;52.502;13.488;2023-04-01T12:44:39;10.60;1.00
1377;DHT22;682;52.502;13.488;2023-04-01T12:47:28;10.70;1.00
1377;DHT22;682;52.502;13.488;2023-04-01T12:53:06;10.70;1.00
1377;DHT22;682;52.502;13.488;2023-04-01T12:55:57;10.80;1.00
1377;DHT22;682;52.502;13.488;2023-04-01T12:58:47;10.80;1.00
1377;DHT22;682;52.502;13.488;2023-04-01T13:01:53;10.80;1.00
1377;DHT22;682;52.502;13.488;2023-04-01T13:07:42;10.70;1.00
1377;DHT22;682;52.502;13.488;2023-04-01T13:15:28;10.50;1.00
1377;DHT22;682;52.502;13.488;2023-04-01T13:18:05;10.40;1.00
1377;DHT22;682;52.502;13.488;2023-04-01T13:20:46;10.30;1.00
1377;DHT22;682;52.502;13.488;2023-04-01T13:23:32;10.10;1.00
1377;DHT22;682;52.502;13.488;2023-04-01T13:26:11;9.90;1.00
1377;DHT22;682;52.502;13.488;2023-04-01T13:28:42;9.90;1.00
1377;DHT22;682;52.502;13.488;2023-04-01T13:31:26;9.90;1.00
1377;DHT22;682;52.502;13.488;2023-04-01T13:34:09;9.90;1.00
1377;DHT22;682;52.502;13.488;2023-04-01T13:36:50;9.80;1.00
1377;DHT22;682;52.502;13.488;2023-04-01T13:39:36;9.90;1.00
1377;DHT22;682;52.502;13.488;2023-04-01T13:42:18;9.80;1.00
1377;DHT22;682;52.502;13.488;2023-04-01T13:44:54;9.80;1.00
1377;DHT22;682;52.502;13.488;2023-04-01T13:50:30;9.70;1.00
1377;DHT22;682;52.502;13.488;2023-04-01T13:53:14;9.80;1.00
1377;DHT22;682;52.502;13.488;2023-04-01T13:55:55;9.80;1.00
1377;DHT22;682;52.502;13.488;2023-04-01T13:58:45;9.80;1.00
1377;DHT22;682;52.502;13.488;2023-04-01T14:01:23;9.70;1.00
1377;DHT22;682;52.502;13.488;2023-04-01T14:04:30;9.60;1.00
1377;DHT22;682;52.502;13.488;2023-04-01T14:07:15;9.40;1.00
1377;DHT22;682;52.502;13.488;2023-04-01T14:12:44;9.40;1.00
1377;DHT22;682;52.502;13.488;2023-04-01T14:15:28;9.40;1.00
1377;DHT22;682;52.502;13.488;2023-04-01T14:18:05;9.60;1.00
1377;DHT22;682;52.502;13.488;2023-04-01T14:20:41;9.70;1.00
1377;DHT22;682;52.502;13.488;2023-04-01T14:23:25;9.70;1.00
1377;DHT22;682;52.502;13.488;2023-04-01T14:26:11;9.70;1.00
1377;DHT22;682;52.502;13.488;2023-04-01T14:28:43;9.60;1.00
1377;DHT22;682;52.502;13.488;2023-04-01T14:31:48;9.60;1.00
1377;DHT22;682;52.502;13.488;2023-04-01T14:34:36;9.80;1.00
1377;DHT22;682;52.502;13.488;2023-04-01T14:37:18;9.70;1.00
1377;DHT22;682;52.502;13.488;2023-04-01T14:42:55;9.70;1.00
1377;DHT22;682;52.502;13.488;2023-04-01T14:45:59;9.70;1.00
1377;DHT22;682;52.502;13.488;2023-04-01T14:48:32;9.70;1.00
1377;DHT22;682;52.502;13.488;2023-04-01T14:51:13;9.70;1.00
1377;DHT22;682;52.502;13.488;2023-04-01T14:53:56;9.70;1.00
1377;DHT22;682;52.502;13.488;2023-04-01T14:56:40;9.70;1.00
1377;DHT22;682;52.502;13.488;2023-04-01T14:59:17;9.70;1.00
1377;DHT22;682;52.502;13.488;2023-04-01T15:01:58;9.70;1.00
1377;DHT22;682;52.502;13.488;2023-04-01T15:04:50;9.70;1.00
1377;DHT22;682;52.502;13.488;2023-04-01T15:07:42;9.60;1.00
1377;DHT22;682;52.502;13.488;2023-04-01T15:10:38;9.60;1.00
1377;DHT22;682;52.502;13.488;2023-04-01T15:13:13;9.40;1.00
1377;DHT22;682;52.502;13.488;2023-04-01T15:15:56;9.10;1.00
1377;DHT22;682;52.502;13.488;2023-04-01T15:18:35;9.00;1.00
1377;DHT22;682;52.502;13.488;2023-04-01T15:21:18;8.90;1.00
1377;DHT22;682;52.502;13.488;2023-04-01T15:23:56;8.80;1.00
1377;DHT22;682;52.502;13.488;2023-04-01T15:26:37;8.80;1.00
1377;DHT22;682;52.502;13.488;2023-04-01T15:29:43;8.70;1.00
1377;DHT22;682;52.502;13.488;2023-04-01T15:32:19;8.80;1.00
1377;DHT22;682;52.502;13.488;2023-04-01T15:34:53;8.80;1.00
1377;DHT22;682;52.502;13.488;2023-04-01T15:37:34;8.80;1.00
1377;DHT22;682;52.502;13.488;2023-04-01T15:40:17;8.90;1.00
1377;DHT22;682;52.502;13.488;2023-04-01T15:42:56;8.90;1.00
1377;DHT22;682;52.502;13.488;2023-04-01T15:45:39;9.10;1.00
1377;DHT22;682;52.502;13.488;2023-04-01T15:48:31;8.90;1.00
1377;DHT22;682;52.502;13.488;2023-04-01T15:57:10;8.80;1.00
1377;DHT22;682;52.502;13.488;2023-04-01T16:00:13;8.80;1.00
1377;DHT22;682;52.502;13.488;2023-04-01T16:02:48;8.60;1.00
1377;DHT22;682;52.502;13.488;2023-04-01T16:05:27;8.50;1.00
1377;DHT22;682;52.502;13.488;2023-04-01T16:08:11;8.30;1.00
1377;DHT22;682;52.502;13.488;2023-04-01T16:11:06;8.30;1.00
1377;DHT22;682;52.502;13.488;2023-04-01T16:13:48;8.20;1.00
1377;DHT22;682;52.502;13.488;2023-04-01T16:16:31;8.30;1.00
1377;DHT22;682;52.502;13.488;2023-04-01T16:19:19;8.30;1.00
1377;DHT22;682;52.502;13.488;2023-04-01T16:21:53;8.30;1.00
1377;DHT22;682;52.502;13.488;2023-04-01T16:24:32;8.20;1.00
1377;DHT22;682;52.502;13.488;2023-04-01T16:27:03;8.10;1.00
1377;DHT22;682;52.502;13.488;2023-04-01T16:29:40;8.00;1.00
1377;DHT22;682;52.502;13.488;2023-04-01T16:32:41;8.00;1.00
1377;DHT22;682;52.502;13.488;2023-04-01T16:35:23;7.90;1.00
1377;DHT22;682;52.502;13.488;2023-04-01T16:37:55;7.90;1.00
1377;DHT22;682;52.502;13.488;2023-04-01T16:40:52;7.90;1.00
1377;DHT22;682;52.502;13.488;2023-04-01T16:43:27;7.90;1.00
1377;DHT22;682;52.502;13.488;2023-04-01T16:46:20;7.90;1.00
1377;DHT22;682;52.502;13.488;2023-04-01T16:49:00;7.80;1.00
1377;DHT22;682;52.502;13.488;2023-04-01T16:51:37;7.80;1.00
1377;DHT22;682;52.502;13.488;2023-04-01T16:54:10;7.70;1.00
1377;DHT22;682;52.502;13.488;2023-04-01T16:56:43;7.60;1.00
1377;DHT22;682;52.502;13.488;2023-04-01T16:59:17;7.50;1.00
1377;DHT22;682;52.502;13.488;2023-04-01T17:01:52;7.40;1.00
1377;DHT22;682;52.502;13.488;2023-04-01T17:04:27;7.30;1.00
1377;DHT22;682;52.502;13.488;2023-04-01T17:07:01;7.10;1.00
1377;DHT22;682;52.502;13.488;2023-04-01T17:09:46;7.00;1.00
1377;DHT22;682;52.502;13.488;2023-04-01T17:12:21;7.00;1.00
1377;DHT22;682;52.502;13.488;2023-04-01T17:14:57;6.90;1.00
1377;DHT22;682;52.502;13.488;2023-04-01T17:17:35;6.90;1.00
1377;DHT22;682;52.502;13.488;2023-04-01T17:20:18;6.90;1.00
1377;DHT22;682;52.502;13.488;2023-04-01T17:22:54;6.90;1.00
1377;DHT22;682;52.502;13.488;2023-04-01T17:25:52;6.90;1.00
1377;DHT22;682;52.502;13.488;2023-04-01T17:28:36;6.80;1.00
1377;DHT22;682;52.502;13.488;2023-04-01T17:31:11;6.70;1.00
1377;DHT22;682;52.502;13.488;2023-04-01T17:33:55;6.70;1.00
1377;DHT22;682;52.502;13.488;2023-04-01T17:36:45;6.70;1.00
1377;DHT22;682;52.502;13.488;2023-04-01T18:21:32;6.30;1.00
1377;DHT22;682;52.502;13.488;2023-04-01T18:24:06;6.30;1.00
1377;DHT22;682;52.502;13.488;2023-04-01T18:26:50;6.30;1.00
1377;DHT22;682;52.502;13.488;2023-04-01T18:29:34;6.20;1.00
1377;DHT22;682;52.502;13.488;2023-04-01T18:32:34;6.20;1.00
1377;DHT22;682;52.502;13.488;2023-04-01T18:35:19;6.20;1.00
1377;DHT22;682;52.502;13.488;2023-04-01T18:58:35;6.00;1.00
1377;DHT22;682;52.502;13.488;2023-04-01T19:01:25;6.10;1.00
1377;DHT22;682;52.502;13.488;2023-04-01T19:04:00;6.00;1.00
1377;DHT22;682;52.502;13.488;2023-04-01T19:06:33;6.00;1.00
1377;DHT22;682;52.502;13.488;2023-04-01T19:09:24;6.00;1.00
1377;DHT22;682;52.502;13.488;2023-04-01T19:12:21;5.90;1.00
1377;DHT22;682;52.502;13.488;2023-04-01T19:17:52;5.90;1.00
1377;DHT22;682;52.502;13.488;2023-04-01T19:20:24;5.80;1.00
1377;DHT22;682;52.502;13.488;2023-04-01T19:23:16;5.90;1.00
1377;DHT22;682;52.502;13.488;2023-04-01T19:25:51;5.80;1.00
1377;DHT22;682;52.502;13.488;2023-04-01T19:28:34;5.80;1.00
1377;DHT22;682;52.502;13.488;2023-04-01T19:34:24;5.80;1.00
1377;DHT22;682;52.502;13.488;2023-04-01T19:36:56;5.70;1.00
1377;DHT22;682;52.502;13.488;2023-04-01T19:39:37;5.60;1.00
1377;DHT22;682;52.502;13.488;2023-04-01T19:42:12;5.50;1.00
1377;DHT22;682;52.502;13.488;2023-04-01T19:44:53;5.50;1.00
1377;DHT22;682;52.502;13.488;2023-04-01T19:47:51;5.40;1.00
1377;DHT22;682;52.502;13.488;2023-04-01T19:50:31;5.40;1.00
1377;DHT22;682;52.502;13.488;2023-04-01T19:53:18;5.40;1.00
1377;DHT22;682;52.502;13.488;2023-04-01T19:55:50;5.30;1.00
1377;DHT22;682;52.502;13.488;2023-04-01T19:58:26;5.30;1.00
1377;DHT22;682;52.502;13.488;2023-04-01T20:00:59;5.30;1.00
1377;DHT22;682;52.502;13.488;2023-04-01T20:03:38;5.40;1.00
1377;DHT22;682;52.502;13.488;2023-04-01T20:06:22;5.40;1.00
1377;DHT22;682;52.502;13.488;2023-04-01T20:11:50;5.30;1.00
1377;DHT22;682;52.502;13.488;2023-04-01T20:17:46;5.20;1.00
1377;DHT22;682;52.502;13.488;2023-04-01T20:20:39;5.20;1.00
1377;DHT22;682;52.502;13.488;2023-04-01T20:23:41;5.20;1.00
1377;DHT22;682;52.502;13.488;2023-04-01T20:26:26;5.20;1.00
1377;DHT22;682;52.502;13.488;2023-04-01T20:32:06;5.30;1.00
1377;DHT22;682;52.502;13.488;2023-04-01T20:35:06;5.40;1.00
1377;DHT22;682;52.502;13.488;2023-04-01T20:37:41;5.30;1.00
1377;DHT22;682;52.502;13.488;2023-04-01T20:40:26;5.20;1.00
1377;DHT22;682;52.502;13.488;2023-04-01T20:45:58;5.00;1.00
1377;DHT22;682;52.502;13.488;2023-04-01T20:51:30;4.90;1.00
1377;DHT22;682;52.502;13.488;2023-04-01T20:54:26;5.00;1.00
1377;DHT22;682;52.502;13.488;2023-04-01T20:57:11;4.90;1.00
1377;DHT22;682;52.502;13.488;2023-04-01T21:00:02;4.80;1.00